Time;durP1;ratioP1;P1;durP2;ratioP2;P2;SDS_P1;SDS_P2;PMS_P1;PMS_P2;Temp;Humidity;BMP_temperature;BMP_pressure;BME280_temperature;BME280_humidity;BME280_pressure;Samples;Min_cycle;Max_cycle;Signal;HPM_P1;HPM_P2
2023/10/27 00:01:14;;;;;;;15.30;4.10;;;12.30;4.00;;;;;;5018318;28;20177;-75
2023/10/27 00:03:42;;;;;;;24.97;4.73;;;12.30;6.60;;;;;;5027936;28;20968;-73
2023/10/27 00:06:08;;;;;;;18.80;3.93;;;12.30;6.70;;;;;;5020524;28;20196;-73
2023/10/27 00:08:34;;;;;;;10.63;4.20;;;12.50;7.10;;;;;;5013687;28;20906;-74
2023/10/27 00:11:18;;;;;;;9.83;3.97;;;12.20;4.80;;;;;;5011763;28;20235;-73
2023/10/27 00:13:48;;;;;;;20.20;4.80;;;12.20;7.10;;;;;;5015637;28;20256;-74
2023/10/27 00:16:24;;;;;;;10.70;3.63;;;12.10;3.30;;;;;;5014255;28;20924;-80
2023/10/27 00:18:54;;;;;;;16.63;3.90;;;12.10;5.90;;;;;;5015456;28;20875;-74
2023/10/27 00:21:20;;;;;;;18.87;3.97;;;12.00;4.10;;;;;;5005231;28;20438;-73
2023/10/27 00:23:46;;;;;;;16.93;4.77;;;12.00;6.60;;;;;;5023780;28;20502;-73
2023/10/27 00:26:13;;;;;;;20.80;3.83;;;12.00;5.80;;;;;;5018192;28;20176;-73
2023/10/27 00:28:39;;;;;;;26.80;4.20;;;11.90;5.40;;;;;;5021142;28;20206;-73
2023/10/27 00:31:05;;;;;;;17.90;5.00;;;11.90;4.50;;;;;;5027092;28;20395;-73
2023/10/27 00:34:00;;;;;;;24.73;4.03;;;11.90;4.70;;;;;;5015971;28;20787;-83
2023/10/27 00:37:00;;;;;;;28.67;4.40;;;11.90;4.80;;;;;;5017518;28;20184;-82
2023/10/27 00:40:01;;;;;;;11.30;3.40;;;11.80;5.60;;;;;;5021198;28;20419;-82
2023/10/27 00:42:30;;;;;;;28.30;4.73;;;11.70;5.80;;;;;;5022151;28;20975;-82
2023/10/27 00:45:00;;;;;;;16.50;3.60;;;11.70;6.80;;;;;;5015867;28;20506;-83
2023/10/27 00:47:31;;;;;;;29.07;3.40;;;11.60;6.60;;;;;;5036693;28;20919;-73
2023/10/27 00:50:01;;;;;;;23.57;4.33;;;11.60;7.60;;;;;;5013861;28;20747;-73
2023/10/27 00:52:29;;;;;;;8.60;3.50;;;11.60;8.20;;;;;;5027384;28;20465;-74
2023/10/27 00:54:55;;;;;;;18.10;3.10;;;11.60;9.10;;;;;;5014322;28;20434;-74
2023/10/27 00:57:22;;;;;;;9.07;3.50;;;11.60;9.10;;;;;;5013313;28;20462;-73
2023/10/27 00:59:50;;;;;;;14.43;3.80;;;11.50;9.60;;;;;;5014157;28;20430;-73
2023/10/27 01:03:00;;;;;;;8.20;3.03;;;11.50;9.10;;;;;;5014040;28;20432;-83
2023/10/27 01:06:00;;;;;;;20.63;3.37;;;11.40;9.70;;;;;;5033893;28;20466;-83
2023/10/27 01:08:48;;;;;;;14.30;3.20;;;11.40;10.00;;;;;;5012407;28;20541;-82
2023/10/27 01:11:30;;;;;;;9.83;3.30;;;11.40;10.10;;;;;;5009918;28;20559;-83
2023/10/27 01:14:01;;;;;;;12.33;3.77;;;11.40;9.40;;;;;;5015456;28;20525;-83
2023/10/27 01:16:31;;;;;;;8.30;3.33;;;11.30;7.60;;;;;;5016086;28;20544;-83
2023/10/27 01:19:00;;;;;;;18.20;3.77;;;11.30;10.70;;;;;;5001667;28;20954;-83
2023/10/27 01:25:01;;;;;;;10.17;3.40;;;11.30;11.20;;;;;;5016631;28;20493;-83
2023/10/27 01:27:30;;;;;;;12.07;3.40;;;11.20;9.10;;;;;;5020396;28;20429;-83
2023/10/27 01:30:01;;;;;;;13.70;3.87;;;11.20;9.00;;;;;;5016662;28;20428;-82
2023/10/27 01:32:31;;;;;;;12.27;3.20;;;11.20;11.20;;;;;;5011247;28;20827;-74
2023/10/27 01:34:56;;;;;;;8.63;3.23;;;11.10;9.40;;;;;;5005995;28;20570;-73
2023/10/27 01:37:22;;;;;;;15.50;3.10;;;11.20;10.80;;;;;;5014038;28;20542;-74
2023/10/27 01:39:48;;;;;;;10.30;2.73;;;11.10;6.90;;;;;;5012816;28;20177;-73
2023/10/27 01:42:19;;;;;;;10.87;3.43;;;11.10;9.40;;;;;;5012995;28;20180;-74
2023/10/27 01:44:44;;;;;;;7.30;3.07;;;11.10;9.40;;;;;;5013665;28;20469;-73
2023/10/27 01:48:00;;;;;;;17.77;3.87;;;11.10;6.80;;;;;;5022090;28;20525;-73
2023/10/27 01:50:31;;;;;;;19.43;3.40;;;11.10;6.80;;;;;;5013548;28;20181;-83
2023/10/27 01:53:01;;;;;;;7.10;3.73;;;11.10;9.50;;;;;;5013293;28;20944;-82
2023/10/27 01:55:31;;;;;;;16.40;2.90;;;11.00;7.50;;;;;;5008056;28;20409;-83
2023/10/27 01:58:02;;;;;;;18.60;3.50;;;10.90;6.90;;;;;;5020937;28;20450;-82
2023/10/27 02:01:00;;;;;;;6.73;2.80;;;11.00;9.80;;;;;;5011856;28;20481;-83
2023/10/27 02:03:32;;;;;;;9.07;2.97;;;10.90;9.40;;;;;;5013004;28;20435;-74
2023/10/27 02:05:58;;;;;;;7.43;2.67;;;10.90;8.30;;;;;;5026464;28;20485;-74
2023/10/27 02:08:24;;;;;;;8.80;3.10;;;10.90;7.30;;;;;;5021105;28;20811;-73
2023/10/27 02:10:55;;;;;;;10.00;2.60;;;10.90;6.40;;;;;;5012927;28;20184;-73
2023/10/27 02:13:25;;;;;;;9.47;3.47;;;10.80;6.40;;;;;;5021813;28;20259;-73
2023/10/27 02:15:50;;;;;;;8.50;2.63;;;10.80;7.50;;;;;;5017584;28;20451;-74
2023/10/27 02:18:16;;;;;;;10.27;2.80;;;10.70;7.40;;;;;;5019565;28;20521;-74
2023/10/27 02:20:42;;;;;;;5.07;2.73;;;10.70;7.20;;;;;;5020746;28;20543;-73
2023/10/27 02:23:19;;;;;;;20.33;2.90;;;10.60;7.40;;;;;;5016877;28;21009;-73
2023/10/27 02:25:49;;;;;;;11.13;3.00;;;10.70;10.20;;;;;;5023185;28;20463;-73
2023/10/27 02:28:37;;;;;;;16.60;3.00;;;10.60;10.00;;;;;;5015754;28;20474;-73
2023/10/27 02:31:03;;;;;;;10.87;2.93;;;10.60;7.30;;;;;;5008108;28;20455;-73
2023/10/27 02:40:12;;;;;;;12.27;2.57;;;10.50;11.40;;;;;;4999131;28;20367;-82
2023/10/27 02:49:25;;;;;;;9.57;2.63;;;10.50;9.60;;;;;;5018897;28;20415;-74
2023/10/27 02:51:54;;;;;;;11.90;3.73;;;10.40;12.30;;;;;;5017761;28;20521;-74
2023/10/27 02:54:20;;;;;;;12.80;3.37;;;10.50;11.60;;;;;;5016252;28;20968;-74
2023/10/27 02:56:46;;;;;;;6.73;3.47;;;10.60;14.30;;;;;;5024479;28;20458;-73
2023/10/27 02:59:13;;;;;;;7.70;2.67;;;10.50;14.10;;;;;;5016278;28;20180;-73
2023/10/27 03:01:38;;;;;;;10.30;3.13;;;10.40;12.70;;;;;;5015629;28;20177;-73
2023/10/27 03:04:04;;;;;;;9.30;3.60;;;10.40;16.00;;;;;;5020968;28;20927;-74
2023/10/27 03:06:31;;;;;;;10.80;3.17;;;10.50;12.60;;;;;;5009488;28;20196;-73
2023/10/27 03:09:00;;;;;;;6.53;3.20;;;10.60;15.20;;;;;;5026788;28;20442;-74
2023/10/27 03:11:31;;;;;;;12.83;3.00;;;10.50;15.70;;;;;;5019025;28;20519;-73
2023/10/27 03:13:56;;;;;;;8.03;3.20;;;10.50;14.40;;;;;;5021186;28;20910;-74
2023/10/27 03:16:25;;;;;;;8.90;2.70;;;10.70;17.20;;;;;;5009676;28;20455;-74
2023/10/27 03:18:50;;;;;;;11.23;3.10;;;10.60;15.80;;;;;;5021812;28;20189;-73
2023/10/27 03:21:25;;;;;;;8.10;3.40;;;10.70;18.70;;;;;;5015874;28;20446;-74
2023/10/27 03:23:51;;;;;;;10.17;3.00;;;10.60;19.00;;;;;;5013410;28;20180;-73
2023/10/27 03:26:16;;;;;;;15.63;3.20;;;10.60;17.00;;;;;;5015987;28;20385;-73
2023/10/27 03:28:43;;;;;;;10.10;3.30;;;10.60;19.00;;;;;;5016103;28;20797;-74
2023/10/27 03:31:13;;;;;;;28.53;3.80;;;10.60;16.40;;;;;;5007141;28;20237;-73
2023/10/27 03:43:44;;;;;;;26.37;4.03;;;10.80;29.30;;;;;;5015690;28;20466;-82
2023/10/27 03:49:38;;;;;;;11.43;3.57;;;11.00;33.80;;;;;;5019974;28;20449;-73
2023/10/27 03:52:24;;;;;;;19.40;3.63;;;11.10;33.00;;;;;;5015358;28;20435;-74
2023/10/27 03:55:09;;;;;;;15.07;3.73;;;11.20;28.50;;;;;;5023304;28;20273;-74
2023/10/27 03:57:39;;;;;;;10.00;3.63;;;11.20;30.00;;;;;;5021701;28;20463;-73
2023/10/27 04:00:07;;;;;;;16.30;3.87;;;11.30;24.90;;;;;;5018846;28;20465;-74
2023/10/27 04:02:33;;;;;;;19.10;3.90;;;11.40;26.10;;;;;;5041375;28;20518;-73
2023/10/27 04:08:21;;;;;;;12.63;3.80;;;11.40;22.20;;;;;;4999404;28;20423;-83
2023/10/27 04:15:03;;;;;;;23.73;3.23;;;11.50;21.60;;;;;;4998374;28;20870;-83
2023/10/27 04:17:50;;;;;;;11.13;3.60;;;11.60;17.90;;;;;;5009718;28;20514;-82
2023/10/27 04:20:34;;;;;;;18.57;4.57;;;11.50;18.30;;;;;;5014125;28;20529;-73
2023/10/27 04:23:00;;;;;;;9.30;3.13;;;11.60;17.10;;;;;;5010028;28;20419;-73
2023/10/27 04:25:48;;;;;;;6.97;3.70;;;11.60;19.70;;;;;;5013053;28;20422;-74
2023/10/27 04:28:15;;;;;;;18.73;3.47;;;11.60;16.50;;;;;;5025391;28;20442;-74
2023/10/27 04:30:41;;;;;;;16.43;3.73;;;11.70;14.80;;;;;;5018606;28;20424;-73
2023/10/27 04:33:16;;;;;;;13.00;4.30;;;11.70;14.20;;;;;;5024790;28;20498;-74
2023/10/27 04:35:44;;;;;;;22.80;4.43;;;11.70;17.20;;;;;;5023624;28;20426;-74
2023/10/27 04:38:10;;;;;;;7.47;3.43;;;11.90;15.20;;;;;;5017535;28;20463;-74
2023/10/27 04:40:35;;;;;;;13.70;3.80;;;11.70;15.40;;;;;;5024810;28;20430;-74
2023/10/27 04:43:03;;;;;;;20.87;4.20;;;11.70;13.70;;;;;;5023557;28;20632;-74
2023/10/27 04:45:28;;;;;;;10.07;4.83;;;11.70;16.40;;;;;;5020924;28;20264;-73
2023/10/27 04:47:54;;;;;;;14.93;4.50;;;11.90;16.60;;;;;;4998542;28;20531;-74
2023/10/27 04:53:41;;;;;;;9.30;4.80;;;11.80;19.10;;;;;;5016634;28;20191;-82
2023/10/27 05:03:36;;;;;;;17.60;5.70;;;11.80;20.40;;;;;;5011553;28;20403;-84
2023/10/27 05:06:13;;;;;;;16.27;4.83;;;11.90;19.40;;;;;;5015086;28;20463;-74
2023/10/27 05:08:39;;;;;;;18.07;5.27;;;11.90;16.80;;;;;;5012844;28;20427;-73
2023/10/27 05:11:05;;;;;;;17.10;5.80;;;11.90;19.40;;;;;;5021230;28;20443;-73
2023/10/27 05:13:31;;;;;;;17.40;5.70;;;11.90;18.90;;;;;;5027144;28;20795;-78
2023/10/27 05:15:56;;;;;;;19.83;5.60;;;14.30;19.90;;;;;;5016729;28;21021;-77
2023/10/27 05:18:22;;;;;;;11.80;5.17;;;12.00;20.50;;;;;;5004187;28;20562;-77
2023/10/27 05:21:19;;;;;;;17.03;5.97;;;12.00;19.00;;;;;;5009581;28;20177;-86
2023/10/27 05:23:58;;;;;;;14.20;6.30;;;12.10;17.80;;;;;;5005147;28;20174;-83
2023/10/27 05:29:45;;;;;;;15.70;5.80;;;12.00;13.90;;;;;;5012928;28;20448;-84
2023/10/27 05:35:32;;;;;;;15.67;6.20;;;12.10;15.90;;;;;;5027939;28;20187;-82
2023/10/27 05:41:20;;;;;;;18.53;6.20;;;12.10;14.20;;;;;;5013408;28;20596;-83
2023/10/27 05:43:45;;;;;;;13.90;5.87;;;12.20;16.40;;;;;;5026415;28;20438;-84
2023/10/27 05:46:13;;;;;;;18.87;6.20;;;12.10;14.40;;;;;;5015303;28;20235;-83
2023/10/27 06:02:07;;;;;;;17.73;5.83;;;12.10;17.00;;;;;;5020447;28;20503;-84
2023/10/27 06:04:39;;;;;;;12.63;6.17;;;12.10;15.50;;;;;;5012812;28;20447;-81
2023/10/27 06:07:42;;;;;;;24.10;6.73;;;12.10;17.30;;;;;;5009373;28;20440;-83
2023/10/27 06:10:08;;;;;;;17.77;6.17;;;12.10;17.60;;;;;;5011181;28;21003;-83
2023/10/27 06:15:56;;;;;;;15.43;5.77;;;12.10;23.00;;;;;;5023241;28;20454;-83
2023/10/27 06:18:21;;;;;;;26.97;6.67;;;12.10;22.50;;;;;;5037237;28;20417;-83
2023/10/27 06:20:49;;;;;;;18.70;7.30;;;12.20;21.10;;;;;;5023780;28;20185;-83
2023/10/27 06:23:15;;;;;;;12.23;6.60;;;12.20;21.20;;;;;;5029413;28;20180;-73
2023/10/27 06:25:41;;;;;;;17.80;6.77;;;12.20;23.20;;;;;;5021344;28;20733;-73
2023/10/27 06:28:07;;;;;;;21.47;7.77;;;12.30;20.70;;;;;;5013066;28;20520;-73
2023/10/27 06:30:33;;;;;;;13.43;6.93;;;12.30;22.90;;;;;;5015806;28;20486;-73
2023/10/27 06:32:59;;;;;;;17.90;8.20;;;12.40;20.90;;;;;;5029506;28;20422;-73
2023/10/27 06:35:25;;;;;;;15.67;7.50;;;12.30;23.00;;;;;;5016005;28;20589;-73
2023/10/27 06:37:51;;;;;;;13.83;6.93;;;12.20;18.50;;;;;;5020510;28;20463;-73
2023/10/27 06:40:17;;;;;;;10.97;6.73;;;12.20;25.90;;;;;;5021882;28;20421;-73
2023/10/27 06:42:43;;;;;;;17.30;6.83;;;12.20;22.30;;;;;;5016753;28;20181;-73
2023/10/27 06:45:09;;;;;;;12.93;6.93;;;12.20;24.30;;;;;;5021002;28;20243;-73
2023/10/27 06:47:35;;;;;;;11.53;6.90;;;12.30;26.80;;;;;;5009505;28;20193;-73
2023/10/27 06:50:03;;;;;;;17.97;6.33;;;12.20;25.60;;;;;;5022612;28;21031;-73
2023/10/27 06:52:29;;;;;;;12.60;7.10;;;12.20;24.80;;;;;;5023869;28;20416;-82
2023/10/27 06:54:55;;;;;;;15.90;6.70;;;12.20;24.30;;;;;;5031525;28;20426;-82
2023/10/27 07:00:43;;;;;;;12.83;6.50;;;12.30;26.90;;;;;;5019901;28;20670;-82
2023/10/27 07:06:30;;;;;;;9.00;6.00;;;12.30;27.10;;;;;;5004288;28;20270;-72
2023/10/27 07:09:03;;;;;;;14.33;6.90;;;12.30;25.40;;;;;;5014174;28;20899;-74
2023/10/27 07:11:29;;;;;;;12.80;6.13;;;12.50;22.10;;;;;;5022411;28;20212;-73
2023/10/27 07:13:54;;;;;;;9.77;5.97;;;12.50;24.60;;;;;;5016953;28;20481;-73
2023/10/27 07:16:20;;;;;;;8.97;5.93;;;12.50;22.40;;;;;;5014478;28;20640;-73
2023/10/27 07:18:46;;;;;;;10.47;5.53;;;12.60;21.60;;;;;;5026074;28;20729;-73
2023/10/27 07:21:13;;;;;;;10.70;6.27;;;12.60;17.10;;;;;;5029122;28;20187;-73
2023/10/27 07:23:38;;;;;;;12.97;5.37;;;12.60;22.90;;;;;;5023185;28;20178;-73
2023/10/27 07:26:12;;;;;;;10.47;5.03;;;12.60;11.80;;;;;;5015061;28;20439;-73
2023/10/27 07:28:39;;;;;;;8.17;4.93;;;12.60;14.00;;;;;;5022472;28;20180;-73
2023/10/27 07:31:08;;;;;;;7.30;5.40;;;12.60;12.30;;;;;;5015085;28;20454;-73
2023/10/27 07:33:38;;;;;;;11.03;4.90;;;12.70;9.30;;;;;;5022134;28;20517;-73
2023/10/27 07:36:06;;;;;;;10.13;4.73;;;12.70;12.10;;;;;;5016762;28;20760;-73
2023/10/27 07:38:32;;;;;;;9.10;4.50;;;12.80;12.40;;;;;;5028723;28;20466;-73
2023/10/27 07:40:58;;;;;;;7.50;4.50;;;12.80;11.20;;;;;;5019608;28;20416;-73
2023/10/27 07:43:25;;;;;;;8.57;3.67;;;12.80;9.20;;;;;;5021293;28;20508;-73
2023/10/27 07:45:55;;;;;;;8.53;3.97;;;12.80;3.90;;;;;;5018521;28;20428;-73
2023/10/27 07:48:25;;;;;;;3.67;2.73;;;12.80;5.70;;;;;;5013072;28;20969;-73
2023/10/27 07:50:51;;;;;;;7.10;2.80;;;12.80;1.70;;;;;;5018178;28;20980;-72
2023/10/27 07:53:38;;;;;;;7.00;3.10;;;12.80;1.90;;;;;;5013329;28;20555;-73
2023/10/27 07:56:04;;;;;;;12.60;2.73;;;12.80;2.10;;;;;;5004723;28;20431;-73
2023/10/27 07:58:31;;;;;;;4.93;2.80;;;12.80;1.50;;;;;;5001033;28;20513;-73
2023/10/27 08:01:03;;;;;;;5.57;2.63;;;;;;;;;;5017303;28;20475;-73
2023/10/27 08:03:29;;;;;;;10.40;3.07;;;12.80;1.10;;;;;;5019566;28;20415;-73
2023/10/27 08:05:55;;;;;;;5.67;2.80;;;12.70;1.00;;;;;;5019466;28;20419;-73
2023/10/27 08:08:37;;;;;;;6.90;2.47;;;12.80;1.10;;;;;;5018755;28;20475;-82
2023/10/27 08:15:05;;;;;;;3.50;2.40;;;12.90;1.00;;;;;;5016923;28;20460;-83
2023/10/27 08:17:32;;;;;;;9.20;2.60;;;12.90;1.00;;;;;;5027964;28;20436;-82
2023/10/27 08:23:25;;;;;;;2.50;1.90;;;12.90;1.00;;;;;;5026367;28;20415;-75
2023/10/27 08:25:55;;;;;;;5.00;2.63;;;12.90;1.00;;;;;;5007511;28;20957;-72
2023/10/27 08:28:26;;;;;;;4.80;2.50;;;12.90;1.00;;;;;;5009205;28;20491;-73
2023/10/27 08:30:53;;;;;;;3.67;1.93;;;12.90;1.00;;;;;;5014464;28;20416;-73
2023/10/27 08:33:19;;;;;;;2.67;2.10;;;12.90;1.00;;;;;;5014129;28;20902;-73
2023/10/27 08:35:45;;;;;;;2.30;1.97;;;12.90;1.00;;;;;;4995726;28;20432;-73
2023/10/27 08:38:10;;;;;;;4.40;2.13;;;13.00;1.00;;;;;;5019807;28;20196;-73
2023/10/27 08:40:36;;;;;;;3.17;2.00;;;13.00;1.00;;;;;;5021762;28;20177;-75
2023/10/27 08:43:03;;;;;;;7.33;2.10;;;12.90;1.00;;;;;;5019667;28;20447;-74
2023/10/27 08:45:31;;;;;;;3.13;2.77;;;12.90;1.00;;;;;;5021499;28;20418;-73
2023/10/27 08:47:58;;;;;;;3.20;2.13;;;13.00;1.00;;;;;;5014299;28;20425;-73
2023/10/27 08:50:24;;;;;;;3.10;2.40;;;12.90;1.00;;;;;;5013225;28;20939;-73
2023/10/27 08:52:51;;;;;;;2.80;2.20;;;12.90;1.00;;;;;;5014430;28;20511;-73
2023/10/27 08:55:20;;;;;;;5.23;2.57;;;12.90;1.00;;;;;;5001738;28;20196;-73
2023/10/27 08:57:46;;;;;;;2.10;1.90;;;12.80;1.00;;;;;;5001367;28;20543;-73
2023/10/27 09:00:13;;;;;;;2.27;2.10;;;12.80;1.00;;;;;;5013890;28;20478;-73
2023/10/27 09:02:43;;;;;;;2.20;2.00;;;12.80;1.00;;;;;;5007862;28;20439;-72
2023/10/27 09:05:19;;;;;;;8.07;1.87;;;12.80;1.00;;;;;;5014354;28;20406;-73
2023/10/27 09:07:45;;;;;;;11.73;1.70;;;12.60;1.00;;;;;;5024907;28;20432;-73
2023/10/27 09:10:13;;;;;;;2.70;1.90;;;12.60;2.10;;;;;;5013479;28;20439;-73
2023/10/27 09:12:39;;;;;;;2.00;1.90;;;12.60;3.50;;;;;;5021322;28;20771;-73
2023/10/27 09:15:09;;;;;;;2.67;2.30;;;12.60;4.60;;;;;;5027526;28;20415;-73
2023/10/27 09:17:57;;;;;;;3.77;2.00;;;12.50;5.20;;;;;;5013415;28;20487;-73
2023/10/27 09:20:24;;;;;;;2.23;1.87;;;12.20;7.60;;;;;;5020321;28;20389;-73
2023/10/27 09:23:00;;;;;;;3.07;1.40;;;12.20;11.70;;;;;;5014528;28;20974;-73
2023/10/27 09:25:33;;;;;;;2.73;1.40;;;12.30;10.80;;;;;;5012032;28;20430;-73
2023/10/27 09:28:05;;;;;;;4.73;2.10;;;12.30;13.10;;;;;;5009067;28;20426;-76
2023/10/27 09:30:51;;;;;;;9.40;2.10;;;12.40;10.50;;;;;;5016091;28;20922;-73
2023/10/27 09:33:21;;;;;;;2.47;1.77;;;12.40;12.80;;;;;;5019108;28;20466;-74
2023/10/27 09:35:51;;;;;;;7.20;2.73;;;12.40;13.80;;;;;;5025157;28;20451;-73
2023/10/27 09:38:17;;;;;;;9.93;2.00;;;12.40;9.60;;;;;;5013401;28;20547;-72
2023/10/27 09:40:48;;;;;;;3.77;2.00;;;12.30;14.10;;;;;;5028016;28;20907;-73
2023/10/27 09:43:25;;;;;;;2.50;1.70;;;12.30;14.00;;;;;;5013188;28;20916;-73
2023/10/27 09:46:07;;;;;;;5.50;2.73;;;12.40;13.70;;;;;;5026217;28;20441;-73
2023/10/27 09:48:38;;;;;;;2.80;1.77;;;12.40;13.00;;;;;;5002296;28;20398;-73
2023/10/27 09:51:10;;;;;;;2.57;2.00;;;12.50;14.30;;;;;;5026907;28;20415;-73
2023/10/27 09:53:47;;;;;;;7.43;2.30;;;12.60;14.50;;;;;;5013802;28;20411;-73
2023/10/27 10:10:24;;;;;;;2.20;1.87;;;12.90;8.20;;;;;;5025957;28;20387;-82
2023/10/27 10:13:08;;;;;;;2.03;1.27;;;12.80;8.50;;;;;;5015351;28;20802;-82
2023/10/27 10:15:38;;;;;;;1.40;1.30;;;12.90;11.80;;;;;;5019724;28;20428;-82
2023/10/27 10:18:25;;;;;;;1.60;1.30;;;13.00;5.20;;;;;;5021790;28;20471;-82
2023/10/27 10:20:57;;;;;;;1.47;1.37;;;13.10;6.40;;;;;;4999732;28;20407;-82
2023/10/27 10:24:12;;;;;;;3.60;0.97;;;13.30;4.10;;;;;;5014146;28;20439;-81
2023/10/27 10:27:04;;;;;;;7.07;3.30;;;13.70;1.00;;;;;;5015185;28;20412;-73
2023/10/27 10:29:32;;;;;;;5.60;2.87;;;13.80;1.80;;;;;;5020726;28;20578;-73
2023/10/27 10:32:34;;;;;;;1.23;1.13;;;14.20;1.00;;;;;;5025681;28;20424;-73
2023/10/27 10:35:22;;;;;;;1.83;1.50;;;14.50;1.00;;;;;;5014169;28;20425;-73
2023/10/27 10:37:51;;;;;;;5.70;1.47;;;15.00;1.00;;;;;;5015044;28;20437;-73
2023/10/27 10:40:23;;;;;;;3.23;1.00;;;15.50;1.00;;;;;;5015748;28;20406;-73
2023/10/27 10:50:12;;;;;;;1.27;0.70;;;15.20;1.00;;;;;;5019887;28;20804;-81
2023/10/27 10:53:16;;;;;;;0.60;0.60;;;15.40;1.00;;;;;;5016525;28;20412;-81
2023/10/27 10:55:45;;;;;;;3.37;0.60;;;15.40;1.00;;;;;;5016462;28;20372;-81
2023/10/27 10:58:37;;;;;;;0.70;0.70;;;15.40;1.00;;;;;;5029291;28;20437;-81
2023/10/27 11:04:30;;;;;;;0.60;0.60;;;14.80;1.00;;;;;;5022987;28;20802;-82
2023/10/27 11:07:24;;;;;;;0.90;0.63;;;14.70;1.00;;;;;;5018243;28;20913;-82
2023/10/27 11:13:13;;;;;;;1.20;0.77;;;14.30;1.00;;;;;;5020766;28;20470;-74
2023/10/27 11:15:49;;;;;;;1.03;0.67;;;14.20;1.00;;;;;;5017636;28;20462;-74
2023/10/27 11:18:15;;;;;;;0.60;0.60;;;14.40;1.00;;;;;;5015651;28;20449;-75
2023/10/27 11:20:45;;;;;;;1.53;0.70;;;14.50;1.00;;;;;;5025851;28;20387;-74
2023/10/27 11:23:14;;;;;;;3.33;0.90;;;14.20;1.00;;;;;;5014673;28;20402;-74
2023/10/27 11:25:59;;;;;;;1.90;0.70;;;14.20;1.00;;;;;;5016398;28;20504;-74
2023/10/27 11:28:26;;;;;;;2.97;0.63;;;14.40;1.00;;;;;;5017306;28;20498;-74
2023/10/27 11:31:27;;;;;;;4.23;0.70;;;14.70;1.00;;;;;;5016556;28;20418;-74
2023/10/27 11:34:05;;;;;;;0.70;0.70;;;14.70;1.00;;;;;;4978312;28;20412;-74
2023/10/27 11:36:40;;;;;;;1.33;0.70;;;14.90;1.00;;;;;;4980439;28;20910;-74
2023/10/27 11:39:19;;;;;;;1.63;0.90;;;15.20;1.00;;;;;;4977153;28;20536;-74
2023/10/27 11:45:08;;;;;;;1.03;0.80;;;15.70;1.00;;;;;;4989196;28;20468;-81
2023/10/27 11:47:33;;;;;;;0.70;0.70;;;16.00;1.00;;;;;;4981266;28;20470;-81
2023/10/27 11:54:12;;;;;;;1.43;0.60;;;16.10;1.00;;;;;;4973627;28;20218;-81
2023/10/27 11:57:02;;;;;;;0.60;0.53;;;16.20;1.00;;;;;;4976597;28;20445;-81
2023/10/27 11:59:29;;;;;;;0.73;0.70;;;16.40;1.00;;;;;;4987915;28;20837;-75
2023/10/27 12:02:07;;;;;;;1.00;0.60;;;16.40;1.00;;;;;;4974009;28;20427;-74
2023/10/27 12:04:37;;;;;;;1.87;0.80;;;16.50;1.00;;;;;;4981559;28;20943;-74
2023/10/27 12:07:11;;;;;;;1.43;0.73;;;16.40;1.00;;;;;;4975585;28;20435;-74
2023/10/27 12:09:43;;;;;;;1.20;0.80;;;15.90;1.00;;;;;;4989687;28;20478;-74
2023/10/27 12:15:31;;;;;;;2.40;0.73;;;15.60;1.00;;;;;;5031960;28;20450;-82
2023/10/27 12:18:07;;;;;;;8.23;1.43;;;15.70;1.00;;;;;;5014538;28;20464;-81
2023/10/27 12:23:54;;;;;;;2.03;0.90;;;15.40;1.00;;;;;;5026440;28;20386;-80
2023/10/27 12:29:43;;;;;;;4.50;0.90;;;15.30;1.00;;;;;;5010755;28;20191;-74
2023/10/27 12:32:09;;;;;;;3.40;0.93;;;15.20;1.00;;;;;;5018296;28;20436;-73
2023/10/27 12:34:45;;;;;;;1.90;0.90;;;15.20;1.00;;;;;;5003223;28;20431;-73
2023/10/27 12:37:13;;;;;;;4.13;0.90;;;15.30;1.00;;;;;;5015150;28;20470;-73
2023/10/27 12:39:42;;;;;;;2.10;0.80;;;15.40;1.00;;;;;;5019558;28;20434;-73
2023/10/27 12:42:25;;;;;;;2.70;0.90;;;15.40;1.00;;;;;;5021167;28;20918;-74
2023/10/27 12:44:56;;;;;;;6.03;0.80;;;15.90;1.00;;;;;;5018302;28;20832;-74
2023/10/27 12:47:22;;;;;;;4.30;0.87;;;15.90;1.00;;;;;;5010574;28;20428;-74
2023/10/27 12:49:48;;;;;;;2.50;1.00;;;15.80;1.00;;;;;;5024503;28;20489;-73
2023/10/27 12:52:29;;;;;;;0.70;0.70;;;15.70;1.00;;;;;;5019761;28;20538;-74
2023/10/27 12:54:58;;;;;;;1.87;0.90;;;15.60;1.00;;;;;;5020770;28;20406;-74
2023/10/27 12:57:24;;;;;;;4.33;1.00;;;15.70;1.00;;;;;;5017978;28;20443;-73
2023/10/27 12:59:51;;;;;;;9.43;0.93;;;15.70;1.00;;;;;;5007906;28;20409;-73
2023/10/27 13:02:31;;;;;;;4.13;0.80;;;15.30;1.00;;;;;;5010476;28;20276;-73
2023/10/27 13:05:01;;;;;;;1.67;0.90;;;15.40;1.00;;;;;;5021721;28;20852;-74
2023/10/27 13:07:43;;;;;;;1.73;0.90;;;15.50;1.00;;;;;;5017119;28;20421;-74
2023/10/27 13:10:25;;;;;;;3.50;0.80;;;15.40;1.00;;;;;;5022216;28;20909;-79
2023/10/27 13:13:00;;;;;;;8.67;1.50;;;15.40;1.00;;;;;;5013609;28;20432;-75
2023/10/27 13:15:26;;;;;;;3.80;0.83;;;15.30;1.00;;;;;;5003391;28;20440;-76
2023/10/27 13:17:55;;;;;;;1.13;0.80;;;15.40;1.00;;;;;;5013093;28;20460;-75
2023/10/27 13:20:38;;;;;;;6.53;1.20;;;15.30;1.00;;;;;;5019958;28;20428;-77
2023/10/27 13:23:49;;;;;;;3.90;0.83;;;15.10;1.00;;;;;;5015747;28;20410;-75
2023/10/27 13:26:19;;;;;;;2.70;1.10;;;15.10;1.00;;;;;;5021004;28;20407;-75
2023/10/27 13:29:24;;;;;;;3.60;0.90;;;15.20;1.00;;;;;;5020507;28;20421;-81
2023/10/27 13:32:01;;;;;;;2.33;1.10;;;15.10;1.00;;;;;;5016742;28;20428;-80
2023/10/27 13:35:20;;;;;;;5.43;0.63;;;14.90;1.00;;;;;;5014316;28;20997;-81
2023/10/27 13:38:06;;;;;;;2.20;0.80;;;14.90;1.00;;;;;;5025304;28;20434;-80
2023/10/27 13:43:54;;;;;;;4.23;1.23;;;14.90;1.00;;;;;;5010747;28;20433;-75
2023/10/27 13:46:43;;;;;;;4.13;1.00;;;14.90;1.00;;;;;;5025720;28;20817;-75
2023/10/27 13:49:12;;;;;;;4.10;1.20;;;14.90;1.00;;;;;;5028008;28;20418;-75
2023/10/27 13:51:49;;;;;;;4.10;1.10;;;14.90;1.00;;;;;;5026198;28;20435;-75
2023/10/27 13:54:25;;;;;;;2.73;1.20;;;14.80;1.00;;;;;;5023178;28;20885;-75
2023/10/27 13:56:50;;;;;;;4.37;1.20;;;14.60;1.00;;;;;;5014079;28;20912;-75
2023/10/27 13:59:19;;;;;;;9.03;1.60;;;14.60;1.00;;;;;;5014311;28;20470;-76
2023/10/27 14:02:01;;;;;;;6.90;1.20;;;14.60;1.00;;;;;;5018293;28;20181;-79
2023/10/27 14:04:28;;;;;;;7.17;1.20;;;14.50;1.00;;;;;;5013444;28;20418;-75
2023/10/27 14:06:57;;;;;;;5.83;0.80;;;14.40;1.00;;;;;;5012442;28;20398;-75
2023/10/27 14:09:22;;;;;;;1.43;0.90;;;14.50;1.00;;;;;;5014108;28;20514;-75
2023/10/27 14:12:00;;;;;;;6.57;0.93;;;14.40;1.00;;;;;;5014057;28;20882;-75
2023/10/27 14:14:31;;;;;;;1.03;0.87;;;14.40;1.00;;;;;;5005620;28;20181;-76
2023/10/27 14:17:37;;;;;;;5.30;1.03;;;14.50;1.00;;;;;;5016709;28;20483;-77
2023/10/27 14:20:07;;;;;;;6.20;1.20;;;14.50;1.00;;;;;;5017346;28;20911;-77
2023/10/27 14:22:44;;;;;;;1.23;1.00;;;14.80;1.00;;;;;;5029315;28;20397;-78
2023/10/27 14:25:13;;;;;;;2.93;0.90;;;15.60;1.00;;;;;;5025694;28;20404;-78
2023/10/27 14:31:44;;;;;;;8.10;1.10;;;16.00;1.00;;;;;;5027728;28;20386;-79
2023/10/27 14:34:43;;;;;;;1.27;0.60;;;16.00;1.00;;;;;;5016051;28;20514;-79
2023/10/27 14:41:12;;;;;;;1.90;0.90;;;16.00;1.00;;;;;;5018756;28;20880;-79
2023/10/27 14:44:30;;;;;;;1.30;0.87;;;15.80;1.00;;;;;;5023961;28;20416;-79
2023/10/27 14:47:17;;;;;;;1.80;0.87;;;15.80;1.00;;;;;;5013807;28;20398;-79
2023/10/27 14:49:44;;;;;;;2.57;1.00;;;15.50;1.00;;;;;;5012444;28;20440;-78
2023/10/27 14:52:31;;;;;;;5.13;0.83;;;15.50;1.00;;;;;;5018576;28;20435;-78
2023/10/27 14:54:57;;;;;;;3.23;1.10;;;15.60;1.00;;;;;;5016108;28;20404;-78
2023/10/27 15:01:15;;;;;;;4.63;0.90;;;15.90;1.00;;;;;;5015978;28;20484;-83
2023/10/27 15:07:20;;;;;;;3.53;0.77;;;15.80;1.00;;;;;;5014471;28;20434;-80
2023/10/27 15:14:00;;;;;;;3.10;0.70;;;15.70;1.00;;;;;;5015423;28;20766;-81
2023/10/27 15:16:26;;;;;;;1.40;0.80;;;15.60;1.00;;;;;;5006446;28;20467;-78
2023/10/27 15:19:15;;;;;;;5.50;0.90;;;15.40;1.00;;;;;;5022136;28;20439;-76
2023/10/27 15:22:07;;;;;;;2.40;0.80;;;15.40;1.00;;;;;;5008681;28;20911;-77
2023/10/27 15:24:49;;;;;;;3.23;1.00;;;15.20;1.00;;;;;;5017462;28;20397;-78
2023/10/27 15:27:31;;;;;;;1.80;0.90;;;15.10;1.00;;;;;;5018755;28;20972;-77
2023/10/27 15:33:19;;;;;;;2.87;0.97;;;15.10;1.00;;;;;;5025402;28;20467;-77
2023/10/27 15:35:49;;;;;;;6.27;1.00;;;14.80;1.00;;;;;;5020584;28;20395;-77
2023/10/27 15:38:25;;;;;;;3.13;0.77;;;14.80;1.00;;;;;;5007280;28;20195;-79
2023/10/27 15:51:01;;;;;;;2.10;0.90;;;14.60;1.00;;;;;;5014839;28;20454;-79
2023/10/27 15:54:19;;;;;;;2.27;0.80;;;14.40;1.00;;;;;;5009988;28;20433;-81
2023/10/27 15:57:25;;;;;;;1.37;0.90;;;14.40;1.00;;;;;;5013926;28;20507;-78
2023/10/27 16:00:01;;;;;;;1.90;0.80;;;14.20;1.00;;;;;;5014020;28;20414;-83
2023/10/27 16:03:11;;;;;;;3.50;0.87;;;14.20;1.00;;;;;;5004905;28;20895;-79
2023/10/27 16:05:37;;;;;;;1.63;0.77;;;14.10;1.00;;;;;;5014679;28;20443;-79
2023/10/27 16:08:03;;;;;;;6.77;1.00;;;14.10;1.00;;;;;;5011117;28;20442;-78
2023/10/27 16:10:29;;;;;;;0.97;0.90;;;14.10;1.00;;;;;;5007271;28;20188;-78
2023/10/27 16:12:54;;;;;;;2.83;1.10;;;14.10;1.00;;;;;;5009998;28;20399;-78